Time;durP1;ratioP1;P1;durP2;ratioP2;P2;SDS_P1;SDS_P2;PMS_P1;PMS_P2;Temp;Humidity;BMP_temperature;BMP_pressure;BME280_temperature;BME280_humidity;BME280_pressure;Samples;Min_cycle;Max_cycle;Signal;HPM_P1;HPM_P2
2020/12/19 00:00:49;;;;;;;101.23;36.83;;;1.20;99.90;;;;;;5034562;28;20134;-68
2020/12/19 00:03:16;;;;;;;73.10;29.13;;;1.20;99.90;;;;;;5035300;28;20482;-69
2020/12/19 00:05:43;;;;;;;63.37;27.47;;;1.20;99.90;;;;;;5031650;28;20079;-67
2020/12/19 00:08:10;;;;;;;62.33;27.20;;;1.20;99.90;;;;;;5036337;28;20581;-67
2020/12/19 00:10:37;;;;;;;63.37;26.83;;;1.20;99.90;;;;;;5036442;28;20068;-66
2020/12/19 00:13:04;;;;;;;57.50;25.33;;;1.20;99.90;;;;;;5035587;28;20054;-65
2020/12/19 00:15:31;;;;;;;55.23;24.80;;;1.20;99.90;;;;;;5033522;28;20056;-69
2020/12/19 00:17:59;;;;;;;52.43;23.03;;;1.20;99.90;;;;;;5034447;28;20053;-66
2020/12/19 00:20:25;;;;;;;56.73;24.17;;;1.20;99.90;;;;;;5030507;28;20461;-64
2020/12/19 00:22:52;;;;;;;49.67;25.30;;;1.20;99.90;;;;;;5033116;28;20049;-68
2020/12/19 00:25:19;;;;;;;51.57;24.50;;;1.20;99.90;;;;;;5030062;28;20083;-68
2020/12/19 00:27:46;;;;;;;50.43;22.93;;;1.40;99.90;;;;;;5028003;28;20396;-68
2020/12/19 00:30:13;;;;;;;52.53;25.67;;;1.50;99.90;;;;;;5028362;28;20118;-67
2020/12/19 00:32:40;;;;;;;52.50;22.97;;;1.50;99.90;;;;;;5024303;28;20111;-64
2020/12/19 00:35:10;;;;;;;46.67;24.03;;;1.60;99.90;;;;;;5023671;28;20058;-64
2020/12/19 00:37:41;;;;;;;51.80;24.00;;;1.60;99.90;;;;;;5022204;28;20158;-65
2020/12/19 00:40:08;;;;;;;51.50;23.83;;;1.60;99.90;;;;;;5026096;28;20132;-65
2020/12/19 00:42:38;;;;;;;46.77;22.40;;;1.70;99.90;;;;;;5018745;28;20041;-65
2020/12/19 00:45:06;;;;;;;54.67;23.60;;;1.70;99.90;;;;;;5021657;28;20095;-65
2020/12/19 00:47:35;;;;;;;54.33;23.67;;;1.70;99.90;;;;;;5021245;28;20060;-64
2020/12/19 00:50:03;;;;;;;49.23;23.33;;;1.80;99.90;;;;;;5025986;28;20453;-64
2020/12/19 00:52:31;;;;;;;48.67;22.57;;;1.80;99.90;;;;;;5027291;28;20520;-65
2020/12/19 00:54:58;;;;;;;49.00;23.83;;;1.80;99.90;;;;;;5016490;28;20061;-63
2020/12/19 00:57:29;;;;;;;48.00;22.87;;;1.80;99.90;;;;;;5022003;28;20100;-66
2020/12/19 00:59:56;;;;;;;54.87;23.57;;;1.90;99.90;;;;;;5022792;28;20045;-64
2020/12/19 01:02:23;;;;;;;49.07;22.43;;;1.90;99.90;;;;;;5017250;28;20046;-65
2020/12/19 01:04:49;;;;;;;53.80;24.37;;;1.80;99.90;;;;;;5017871;28;20053;-65
2020/12/19 01:07:16;;;;;;;50.13;23.47;;;1.90;99.90;;;;;;5011947;28;20054;-65
2020/12/19 01:09:44;;;;;;;47.33;21.73;;;1.90;99.90;;;;;;5017716;28;20070;-65
2020/12/19 01:12:11;;;;;;;49.90;22.03;;;1.90;99.90;;;;;;5017830;28;20057;-64
2020/12/19 01:14:38;;;;;;;43.43;20.43;;;2.00;99.90;;;;;;5021639;28;20064;-65
2020/12/19 01:17:05;;;;;;;48.10;22.60;;;2.00;99.90;;;;;;5022247;28;20498;-65
2020/12/19 01:19:33;;;;;;;42.53;20.70;;;2.10;99.90;;;;;;5027484;28;20052;-64
2020/12/19 01:21:59;;;;;;;46.53;21.60;;;2.00;99.90;;;;;;5029632;28;20417;-65
2020/12/19 01:24:26;;;;;;;44.60;21.93;;;2.00;99.90;;;;;;5026064;28;20632;-65
2020/12/19 01:26:54;;;;;;;41.90;21.40;;;2.00;99.90;;;;;;5017021;28;20506;-65
2020/12/19 01:29:21;;;;;;;49.23;22.67;;;2.10;99.90;;;;;;5010628;28;20053;-64
2020/12/19 01:31:47;;;;;;;47.27;22.73;;;2.10;99.90;;;;;;5011456;28;20054;-65
2020/12/19 01:34:21;;;;;;;47.17;21.53;;;2.10;99.90;;;;;;5024160;28;20049;-67
2020/12/19 01:36:47;;;;;;;44.07;21.63;;;2.10;99.90;;;;;;5022599;28;20045;-67
2020/12/19 01:39:14;;;;;;;51.23;22.47;;;2.20;99.90;;;;;;5016353;28;20045;-67
2020/12/19 01:41:41;;;;;;;39.70;19.03;;;2.10;99.90;;;;;;5017743;28;20096;-68
2020/12/19 01:44:08;;;;;;;43.50;20.40;;;2.10;99.90;;;;;;5018480;28;20054;-67
2020/12/19 01:46:47;;;;;;;42.30;19.80;;;2.20;99.90;;;;;;5018588;28;20050;-68
2020/12/19 01:49:15;;;;;;;44.67;20.43;;;2.10;99.90;;;;;;5021171;28;20049;-67
2020/12/19 01:51:42;;;;;;;41.17;19.67;;;2.10;99.90;;;;;;5023118;28;20045;-66
2020/12/19 01:54:09;;;;;;;43.40;20.43;;;2.10;99.90;;;;;;5019529;28;20050;-68
2020/12/19 01:56:51;;;;;;;46.60;21.37;;;2.20;99.90;;;;;;5021674;28;20049;-66
2020/12/19 01:59:20;;;;;;;47.47;21.73;;;2.20;99.90;;;;;;5021875;28;20544;-67
2020/12/19 02:01:48;;;;;;;44.67;20.27;;;2.20;99.90;;;;;;5019451;28;20049;-67
2020/12/19 02:04:16;;;;;;;47.53;21.40;;;2.30;99.90;;;;;;5027633;28;20052;-69
2020/12/19 02:06:45;;;;;;;46.10;22.20;;;2.10;99.90;;;;;;5031272;28;20053;-66
2020/12/19 02:09:13;;;;;;;39.13;18.93;;;2.20;99.90;;;;;;5029797;28;20060;-66
2020/12/19 02:11:40;;;;;;;48.87;21.87;;;2.20;99.90;;;;;;5030753;28;20060;-67
2020/12/19 02:14:08;;;;;;;44.77;21.10;;;2.20;99.90;;;;;;5030175;28;20072;-69
2020/12/19 02:16:36;;;;;;;48.50;21.33;;;2.20;99.90;;;;;;5030524;28;20057;-66
2020/12/19 02:19:12;;;;;;;42.50;19.53;;;2.20;99.90;;;;;;5029820;28;20115;-66
2020/12/19 02:21:42;;;;;;;40.73;18.63;;;2.10;99.90;;;;;;5027205;28;20081;-67
2020/12/19 02:24:10;;;;;;;49.60;22.13;;;1.90;99.90;;;;;;5030988;28;20096;-68
2020/12/19 02:26:40;;;;;;;40.77;19.30;;;1.90;99.90;;;;;;5028815;28;20053;-67
2020/12/19 02:29:06;;;;;;;41.20;19.13;;;2.10;99.90;;;;;;5030519;28;20045;-66
2020/12/19 02:31:33;;;;;;;47.00;21.03;;;2.10;99.90;;;;;;5029742;28;20049;-66
2020/12/19 02:34:00;;;;;;;49.07;21.10;;;2.00;99.90;;;;;;5030576;28;20383;-68
2020/12/19 02:36:26;;;;;;;47.43;22.13;;;1.90;99.90;;;;;;5029100;28;20485;-67
2020/12/19 02:38:53;;;;;;;47.50;21.33;;;1.80;99.90;;;;;;5030374;28;20053;-67
2020/12/19 02:41:20;;;;;;;47.20;21.00;;;1.80;99.90;;;;;;5029658;28;20096;-67
2020/12/19 02:43:57;;;;;;;56.23;21.87;;;1.70;99.90;;;;;;5018270;28;20387;-67
2020/12/19 02:46:24;;;;;;;53.50;21.55;;;1.60;99.90;;;;;;5021566;28;20057;-66
2020/12/19 02:48:51;;;;;;;44.30;19.90;;;1.50;99.90;;;;;;5024254;28;20049;-67
2020/12/19 02:51:18;;;;;;;53.80;22.10;;;1.50;99.90;;;;;;5029755;28;20049;-66
2020/12/19 02:53:45;;;;;;;50.23;21.57;;;1.50;99.90;;;;;;5030871;28;20100;-67
2020/12/19 02:56:14;;;;;;;53.73;22.67;;;1.50;99.90;;;;;;5030144;28;20049;-66
2020/12/19 02:58:42;;;;;;;51.17;22.77;;;1.40;99.90;;;;;;5025524;28;20053;-67
2020/12/19 03:01:08;;;;;;;52.70;21.13;;;1.50;99.90;;;;;;5028906;28;20053;-68
2020/12/19 03:03:35;;;;;;;52.53;23.27;;;1.50;99.90;;;;;;5029610;28;20053;-67
2020/12/19 03:06:02;;;;;;;48.87;21.27;;;1.50;99.90;;;;;;5028974;28;20514;-66
2020/12/19 03:08:29;;;;;;;54.53;21.57;;;1.50;99.90;;;;;;5029688;28;20061;-68
2020/12/19 03:10:55;;;;;;;58.33;22.30;;;1.50;99.90;;;;;;5028697;28;20050;-66
2020/12/19 03:13:22;;;;;;;56.47;23.20;;;1.40;99.90;;;;;;5029570;28;20502;-67
2020/12/19 03:15:50;;;;;;;59.27;23.97;;;1.50;99.90;;;;;;5028843;28;20099;-67
2020/12/19 03:18:16;;;;;;;58.93;23.40;;;1.50;99.90;;;;;;5029673;28;20088;-67
2020/12/19 03:20:43;;;;;;;56.43;23.93;;;1.50;99.90;;;;;;5029370;28;20436;-67
2020/12/19 03:23:10;;;;;;;53.13;22.50;;;1.50;99.90;;;;;;5028701;28;20501;-67
2020/12/19 03:25:36;;;;;;;52.03;22.43;;;1.40;99.90;;;;;;5032808;28;20045;-67
2020/12/19 03:28:03;;;;;;;46.70;20.90;;;1.40;99.90;;;;;;5032568;28;20053;-67
2020/12/19 03:30:30;;;;;;;62.33;23.60;;;1.80;99.90;;;;;;5031839;28;20053;-66
2020/12/19 03:32:57;;;;;;;66.13;23.80;;;1.70;99.90;;;;;;5028008;28;20424;-66
2020/12/19 03:35:25;;;;;;;62.80;22.53;;;1.70;99.90;;;;;;5029057;28;20045;-66
2020/12/19 03:37:52;;;;;;;99.50;40.93;;;1.80;99.90;;;;;;5029037;28;20183;-68
2020/12/19 03:40:19;;;;;;;70.43;26.73;;;1.80;99.90;;;;;;5025629;28;20056;-66
2020/12/19 03:42:45;;;;;;;61.87;22.87;;;1.80;99.90;;;;;;5029261;28;20433;-66
2020/12/19 03:45:12;;;;;;;59.53;23.10;;;1.90;99.90;;;;;;5028747;28;20042;-66
2020/12/19 03:47:39;;;;;;;61.90;23.17;;;1.90;99.90;;;;;;5029511;28;20487;-67
2020/12/19 03:50:06;;;;;;;58.17;21.43;;;1.90;99.90;;;;;;5029002;28;20059;-68
2020/12/19 03:52:33;;;;;;;46.23;20.17;;;2.00;99.90;;;;;;5029440;28;20064;-67
2020/12/19 03:55:00;;;;;;;47.63;19.57;;;2.20;99.90;;;;;;5029802;28;20053;-67
2020/12/19 03:57:26;;;;;;;48.00;19.80;;;2.40;99.90;;;;;;5028409;28;20063;-67
2020/12/19 03:59:53;;;;;;;47.73;19.07;;;2.40;99.90;;;;;;5027249;28;20064;-68
2020/12/19 04:02:19;;;;;;;44.73;18.10;;;2.50;99.90;;;;;;5024709;28;20053;-69
2020/12/19 04:04:46;;;;;;;40.53;17.60;;;2.60;99.90;;;;;;5029523;28;20532;-67
2020/12/19 04:07:14;;;;;;;47.23;20.30;;;2.70;99.90;;;;;;5029110;28;20053;-67
2020/12/19 04:09:40;;;;;;;39.90;17.53;;;2.70;99.90;;;;;;5028977;28;20050;-68
2020/12/19 04:12:07;;;;;;;46.10;18.13;;;2.80;99.90;;;;;;5028835;28;20069;-66
2020/12/19 04:14:40;;;;;;;43.13;18.90;;;2.90;99.90;;;;;;5028194;28;20054;-67
2020/12/19 04:17:08;;;;;;;36.00;16.40;;;3.00;99.90;;;;;;5029477;28;20057;-67
2020/12/19 04:19:35;;;;;;;41.27;17.60;;;3.10;99.90;;;;;;5028774;28;20049;-66
2020/12/19 04:22:02;;;;;;;39.93;17.13;;;3.00;99.90;;;;;;5028792;28;20417;-68
2020/12/19 04:24:29;;;;;;;36.67;16.93;;;3.10;99.90;;;;;;5028731;28;20817;-67
2020/12/19 04:26:56;;;;;;;40.60;16.30;;;3.10;99.90;;;;;;5028763;28;20084;-67
2020/12/19 04:29:26;;;;;;;39.03;16.17;;;3.20;99.90;;;;;;5029596;28;20058;-67
2020/12/19 04:31:53;;;;;;;37.90;16.27;;;3.20;99.90;;;;;;5027936;28;20088;-67
2020/12/19 04:34:20;;;;;;;39.23;15.77;;;3.20;99.90;;;;;;5029062;28;20054;-66
2020/12/19 04:36:46;;;;;;;39.57;18.13;;;3.20;99.90;;;;;;5027640;28;20095;-68
2020/12/19 04:39:13;;;;;;;39.83;18.00;;;3.20;99.90;;;;;;5026644;28;20064;-67
2020/12/19 04:41:41;;;;;;;37.43;16.07;;;3.20;99.90;;;;;;5027368;28;20064;-70
2020/12/19 04:44:07;;;;;;;38.30;16.97;;;3.30;99.90;;;;;;5032010;28;20053;-66
2020/12/19 04:46:40;;;;;;;37.47;16.30;;;3.20;99.90;;;;;;5033372;28;20061;-67
2020/12/19 04:49:08;;;;;;;41.73;17.40;;;3.20;99.90;;;;;;5031810;28;20100;-66
2020/12/19 04:51:35;;;;;;;38.13;16.93;;;3.30;99.90;;;;;;5032218;28;20846;-68
2020/12/19 04:54:02;;;;;;;36.23;16.63;;;3.30;99.90;;;;;;5032756;28;20054;-67
2020/12/19 04:56:30;;;;;;;34.30;16.10;;;3.40;99.90;;;;;;5034207;28;20509;-67
2020/12/19 04:58:58;;;;;;;36.23;16.27;;;3.60;99.90;;;;;;5032472;28;20050;-69
2020/12/19 05:01:25;;;;;;;38.53;17.23;;;3.50;99.90;;;;;;5030996;28;20085;-67
2020/12/19 05:03:53;;;;;;;35.37;15.87;;;3.70;99.90;;;;;;5032316;28;20053;-67
2020/12/19 05:06:21;;;;;;;34.53;15.47;;;3.70;99.90;;;;;;5031410;28;20053;-69
2020/12/19 05:08:48;;;;;;;33.10;14.87;;;3.70;99.90;;;;;;5022265;28;20058;-67
2020/12/19 05:11:15;;;;;;;33.40;15.80;;;3.60;99.90;;;;;;5012116;28;20136;-66
2020/12/19 05:13:43;;;;;;;31.37;14.87;;;3.70;99.90;;;;;;5011669;28;20053;-66
2020/12/19 05:16:12;;;;;;;29.73;14.60;;;3.70;99.90;;;;;;5012522;28;20049;-67
2020/12/19 05:18:39;;;;;;;31.63;14.67;;;3.70;99.90;;;;;;5011569;28;20054;-67
2020/12/19 05:21:06;;;;;;;31.80;14.17;;;3.70;99.90;;;;;;5011836;28;20046;-67
2020/12/19 05:23:34;;;;;;;32.47;14.60;;;3.80;99.90;;;;;;5013513;28;20496;-67
2020/12/19 05:26:03;;;;;;;29.53;14.43;;;3.70;99.90;;;;;;5013296;28;20135;-68
2020/12/19 05:28:30;;;;;;;30.37;14.73;;;3.90;99.90;;;;;;5014297;28;20064;-67
2020/12/19 05:30:59;;;;;;;30.23;13.40;;;3.80;99.90;;;;;;5012214;28;20061;-67
2020/12/19 05:33:31;;;;;;;33.30;13.90;;;3.80;99.90;;;;;;5014068;28;20399;-67
2020/12/19 05:35:58;;;;;;;30.57;13.50;;;3.70;99.90;;;;;;5013859;28;20057;-67
2020/12/19 05:38:27;;;;;;;27.50;12.30;;;3.70;99.90;;;;;;5020861;28;20485;-66
2020/12/19 05:40:54;;;;;;;29.73;13.70;;;3.80;99.90;;;;;;5031353;28;20084;-67
2020/12/19 05:43:21;;;;;;;28.93;13.73;;;3.70;99.90;;;;;;5030373;28;20406;-67
2020/12/19 05:45:47;;;;;;;27.43;14.47;;;3.70;99.90;;;;;;5031693;28;20103;-67
2020/12/19 05:48:14;;;;;;;28.63;14.97;;;3.70;99.90;;;;;;5031109;28;20072;-67
2020/12/19 05:50:45;;;;;;;30.03;14.47;;;3.70;99.90;;;;;;5031006;28;20050;-67
2020/12/19 05:53:13;;;;;;;31.23;15.03;;;3.70;99.90;;;;;;5030775;28;20057;-67
2020/12/19 05:55:40;;;;;;;31.00;14.57;;;3.70;99.90;;;;;;5031011;28;20050;-67
2020/12/19 05:58:07;;;;;;;29.87;14.77;;;3.80;99.90;;;;;;5031159;28;20049;-67
2020/12/19 06:00:34;;;;;;;29.63;14.87;;;3.80;99.90;;;;;;5030081;28;20049;-68
2020/12/19 06:03:03;;;;;;;32.00;14.57;;;3.80;99.90;;;;;;5031586;28;20060;-67
2020/12/19 06:05:32;;;;;;;31.60;14.97;;;3.80;99.90;;;;;;5031041;28;20123;-68
2020/12/19 06:08:00;;;;;;;27.43;13.50;;;3.80;99.90;;;;;;5031188;28;20110;-66
2020/12/19 06:10:27;;;;;;;26.97;13.27;;;3.80;99.90;;;;;;5030587;28;20072;-67
2020/12/19 06:13:02;;;;;;;28.73;13.57;;;3.80;99.90;;;;;;5030304;28;20088;-69
2020/12/19 06:15:42;;;;;;;27.80;13.13;;;3.80;99.90;;;;;;5031187;28;20046;-67
2020/12/19 06:18:19;;;;;;;26.87;13.73;;;3.90;99.90;;;;;;5030427;28;20137;-67
2020/12/19 06:20:46;;;;;;;28.95;13.38;;;3.90;99.90;;;;;;5030787;28;20058;-67
2020/12/19 06:23:17;;;;;;;28.60;13.77;;;3.80;99.90;;;;;;5030380;28;20053;-68
2020/12/19 06:25:45;;;;;;;25.13;12.33;;;3.90;99.90;;;;;;5030562;28;20464;-67
2020/12/19 06:28:13;;;;;;;26.60;13.17;;;3.90;99.90;;;;;;5031472;28;20058;-66
2020/12/19 06:30:39;;;;;;;28.53;13.20;;;3.80;99.90;;;;;;5029546;28;20053;-66
2020/12/19 06:33:11;;;;;;;25.93;13.27;;;3.80;99.90;;;;;;5030363;28;20057;-67
2020/12/19 06:35:39;;;;;;;27.90;13.70;;;3.80;99.90;;;;;;5029682;28;20049;-67
2020/12/19 06:38:05;;;;;;;27.23;12.57;;;3.80;99.90;;;;;;5030438;28;20049;-68
2020/12/19 06:40:39;;;;;;;24.67;12.67;;;3.90;99.90;;;;;;5030405;28;20053;-66
2020/12/19 06:43:14;;;;;;;26.30;13.20;;;3.90;99.90;;;;;;5029559;28;20061;-66
2020/12/19 06:45:41;;;;;;;26.70;12.67;;;3.90;99.90;;;;;;5030822;28;20054;-67
2020/12/19 06:48:30;;;;;;;26.10;13.10;;;3.80;99.90;;;;;;5029599;28;20490;-67
2020/12/19 06:50:58;;;;;;;24.37;12.90;;;3.70;99.90;;;;;;5023431;28;20041;-68
2020/12/19 06:53:26;;;;;;;25.53;12.60;;;3.80;99.90;;;;;;5009672;28;20534;-67
2020/12/19 06:55:53;;;;;;;26.50;12.87;;;3.80;99.90;;;;;;5011147;28;20056;-66
2020/12/19 06:58:31;;;;;;;25.20;11.80;;;3.80;99.90;;;;;;5011627;28;20053;-67
2020/12/19 07:00:59;;;;;;;21.80;10.77;;;3.70;99.90;;;;;;5012138;28;20058;-67
2020/12/19 07:03:39;;;;;;;22.63;11.70;;;3.90;99.90;;;;;;5013283;28;20050;-67
2020/12/19 07:06:10;;;;;;;20.73;10.57;;;4.00;99.90;;;;;;5011406;28;20529;-67
2020/12/19 07:08:36;;;;;;;24.00;12.20;;;3.90;99.90;;;;;;5019219;28;20061;-66
2020/12/19 07:11:04;;;;;;;23.87;12.17;;;3.80;99.90;;;;;;5028808;28;20445;-66
2020/12/19 07:13:56;;;;;;;19.83;10.57;;;4.00;99.90;;;;;;5030308;28;20490;-66
2020/12/19 07:16:45;;;;;;;23.67;11.57;;;3.80;99.90;;;;;;5029329;28;20056;-67
2020/12/19 07:19:24;;;;;;;20.27;11.10;;;3.80;99.90;;;;;;5030105;28;20063;-67
2020/12/19 07:21:51;;;;;;;20.20;10.77;;;3.90;99.90;;;;;;5029018;28;20057;-67
2020/12/19 07:24:18;;;;;;;23.73;11.90;;;3.80;99.90;;;;;;5030093;28;20494;-67
2020/12/19 07:26:46;;;;;;;25.03;12.10;;;3.80;99.90;;;;;;5030112;28;20049;-66
2020/12/19 07:29:15;;;;;;;25.33;12.17;;;3.80;99.90;;;;;;5028696;28;20054;-67
2020/12/19 07:31:44;;;;;;;23.80;12.30;;;3.80;99.90;;;;;;5029551;28;20433;-68
2020/12/19 07:34:11;;;;;;;22.27;11.70;;;3.80;99.90;;;;;;5029138;28;20053;-67
2020/12/19 07:36:39;;;;;;;22.03;11.30;;;3.80;99.90;;;;;;5027973;28;20056;-67
2020/12/19 07:39:06;;;;;;;23.13;11.93;;;3.80;99.90;;;;;;5028192;28;20056;-66
2020/12/19 07:41:34;;;;;;;19.90;10.17;;;3.70;99.90;;;;;;5029124;28;20089;-67
2020/12/19 07:44:12;;;;;;;20.83;10.63;;;3.80;99.90;;;;;;5029660;28;20116;-68
2020/12/19 07:46:52;;;;;;;22.40;10.77;;;3.80;99.90;;;;;;5028360;28;20049;-66
2020/12/19 07:49:32;;;;;;;21.03;10.93;;;3.80;99.90;;;;;;5029873;28;20056;-66
2020/12/19 07:52:16;;;;;;;20.13;10.60;;;3.70;99.90;;;;;;5027517;28;20612;-66
2020/12/19 07:54:52;;;;;;;19.47;10.07;;;3.70;99.90;;;;;;5029691;28;20383;-67
2020/12/19 07:57:19;;;;;;;22.03;11.60;;;3.80;99.90;;;;;;5029099;28;20049;-67
2020/12/19 07:59:47;;;;;;;20.50;10.90;;;3.70;99.90;;;;;;5029927;28;20350;-66
2020/12/19 08:02:16;;;;;;;21.77;10.90;;;3.70;99.90;;;;;;5027550;28;20061;-66
2020/12/19 08:04:52;;;;;;;21.77;11.47;;;3.70;99.90;;;;;;5029612;28;20056;-69
2020/12/19 08:07:20;;;;;;;19.42;10.25;;;3.60;99.90;;;;;;5029112;28;20060;-67
2020/12/19 08:09:46;;;;;;;19.53;10.23;;;3.60;99.90;;;;;;5028552;28;20048;-68
2020/12/19 08:12:13;;;;;;;20.03;10.50;;;3.60;99.90;;;;;;5029532;28;20042;-67
2020/12/19 08:14:41;;;;;;;20.07;10.37;;;3.70;99.90;;;;;;5029673;28;20456;-67
2020/12/19 08:17:13;;;;;;;19.40;10.37;;;3.80;99.90;;;;;;5032079;28;20131;-67
2020/12/19 08:19:45;;;;;;;20.83;10.23;;;3.80;99.90;;;;;;5032850;28;20045;-67
2020/12/19 08:22:12;;;;;;;19.33;10.03;;;3.80;99.90;;;;;;5032067;28;20056;-67
2020/12/19 08:24:39;;;;;;;18.73;9.77;;;3.70;99.90;;;;;;5033693;28;20052;-67
2020/12/19 08:27:47;;;;;;;19.87;10.83;;;3.60;99.90;;;;;;5032384;28;20053;-66
2020/12/19 08:30:16;;;;;;;20.42;10.68;;;3.60;99.90;;;;;;5032814;28;20076;-67
2020/12/19 08:32:46;;;;;;;20.27;10.00;;;3.70;99.90;;;;;;5032328;28;20057;-67
2020/12/19 08:35:22;;;;;;;16.67;9.23;;;3.70;99.90;;;;;;5033346;28;20057;-66
2020/12/19 08:37:49;;;;;;;20.57;10.20;;;3.70;99.90;;;;;;5032792;28;20056;-66
2020/12/19 08:40:17;;;;;;;18.70;9.77;;;3.60;99.90;;;;;;5032856;28;20096;-67
2020/12/19 08:42:46;;;;;;;19.50;9.83;;;3.70;99.90;;;;;;5033605;28;20079;-66
2020/12/19 08:45:27;;;;;;;20.70;11.00;;;3.70;99.90;;;;;;5033867;28;20056;-67
2020/12/19 08:47:56;;;;;;;20.20;9.83;;;3.70;99.90;;;;;;5032616;28;20045;-66
2020/12/19 08:50:25;;;;;;;18.90;9.70;;;3.70;99.90;;;;;;5030997;28;20513;-66
2020/12/19 08:53:20;;;;;;;18.43;9.60;;;3.70;99.90;;;;;;5032907;28;20061;-69
2020/12/19 08:55:47;;;;;;;16.47;8.97;;;3.60;99.90;;;;;;4997088;28;20060;-67
2020/12/19 08:58:24;;;;;;;17.90;9.03;;;3.80;99.90;;;;;;5033098;28;20046;-68
2020/12/19 09:00:51;;;;;;;;;;;3.70;99.90;;;;;;5031799;28;20095;-66
2020/12/19 09:03:26;;;;;;;20.42;7.75;;;3.70;99.90;;;;;;5032416;28;19928;-67
2020/12/19 09:06:00;;;;;;;15.03;7.60;;;3.80;99.90;;;;;;5031618;28;20486;-67
2020/12/19 09:08:32;;;;;;;16.37;7.80;;;3.80;99.90;;;;;;5032352;28;20058;-66
2020/12/19 09:10:59;;;;;;;15.77;9.10;;;3.70;99.90;;;;;;5031698;28;20053;-67
2020/12/19 09:13:26;;;;;;;15.20;8.10;;;3.70;99.90;;;;;;5031197;28;20054;-69
2020/12/19 09:15:56;;;;;;;17.43;9.33;;;3.80;99.90;;;;;;5032474;28;20053;-67
2020/12/19 09:18:25;;;;;;;17.90;9.30;;;3.80;99.90;;;;;;5031898;28;20062;-67
2020/12/19 09:20:56;;;;;;;17.67;9.43;;;3.90;99.90;;;;;;5031692;28;20053;-67
2020/12/19 09:23:24;;;;;;;15.87;8.53;;;3.90;99.90;;;;;;5031292;28;20050;-67
2020/12/19 09:25:51;;;;;;;15.70;8.37;;;3.90;99.90;;;;;;5031929;28;20060;-67
2020/12/19 09:28:17;;;;;;;15.90;8.90;;;3.90;99.90;;;;;;5031114;28;20049;-66
2020/12/19 09:30:44;;;;;;;14.20;7.47;;;3.90;99.90;;;;;;5024933;28;20755;-68
2020/12/19 09:33:11;;;;;;;14.37;8.30;;;3.90;99.90;;;;;;5012188;28;20418;-67
2020/12/19 09:35:39;;;;;;;16.60;9.13;;;3.90;99.90;;;;;;5011004;28;20429;-66
2020/12/19 09:38:06;;;;;;;15.77;7.07;;;3.90;99.90;;;;;;5016471;28;20096;-66
2020/12/19 09:40:33;;;;;;;12.67;7.37;;;3.90;99.90;;;;;;5030488;28;20050;-67
2020/12/19 09:42:59;;;;;;;14.37;8.23;;;3.90;99.90;;;;;;5031751;28;20052;-67
2020/12/19 09:45:26;;;;;;;14.00;7.57;;;4.00;99.90;;;;;;5031236;28;20437;-67
2020/12/19 09:47:55;;;;;;;18.90;8.60;;;3.90;99.90;;;;;;5031280;28;20049;-67
2020/12/19 09:50:22;;;;;;;14.80;8.20;;;4.00;99.90;;;;;;5027578;28;20049;-66
2020/12/19 09:52:50;;;;;;;14.57;8.00;;;4.00;99.90;;;;;;5020035;28;20050;-68
2020/12/19 09:55:17;;;;;;;13.73;7.87;;;4.10;99.90;;;;;;5027143;28;20857;-67
2020/12/19 09:57:45;;;;;;;14.80;8.63;;;4.20;99.90;;;;;;5015986;28;20052;-67
2020/12/19 10:00:13;;;;;;;14.50;7.73;;;4.30;99.90;;;;;;5020001;28;20054;-67
2020/12/19 10:02:41;;;;;;;15.40;8.27;;;4.30;99.90;;;;;;5024195;28;20501;-67
2020/12/19 10:05:08;;;;;;;14.83;8.17;;;4.10;99.90;;;;;;5013030;28;20057;-66
2020/12/19 10:07:34;;;;;;;12.73;7.50;;;4.20;99.90;;;;;;5025902;28;20056;-66
2020/12/19 10:10:03;;;;;;;13.33;7.57;;;4.10;99.90;;;;;;5029079;28;20049;-68
2020/12/19 10:12:30;;;;;;;14.80;7.87;;;4.10;99.90;;;;;;5017269;28;20053;-67
2020/12/19 10:14:57;;;;;;;13.73;7.70;;;4.20;99.90;;;;;;5026253;28;20053;-67
2020/12/19 10:17:24;;;;;;;14.07;7.73;;;4.10;99.90;;;;;;5013019;28;20053;-67
2020/12/19 10:19:51;;;;;;;12.93;7.73;;;4.20;99.90;;;;;;5022949;28;20048;-66
2020/12/19 10:22:18;;;;;;;15.90;8.40;;;4.10;99.90;;;;;;5017753;28;20057;-67
2020/12/19 10:24:44;;;;;;;18.70;8.27;;;4.10;99.90;;;;;;5015521;28;20064;-65
2020/12/19 10:27:15;;;;;;;16.00;8.43;;;4.00;99.90;;;;;;5026123;28;20053;-64
2020/12/19 10:29:42;;;;;;;16.63;9.23;;;4.10;99.90;;;;;;5017107;28;20056;-63
2020/12/19 10:32:09;;;;;;;15.57;8.60;;;4.10;99.90;;;;;;5021126;28;20060;-64
2020/12/19 10:34:36;;;;;;;15.13;8.97;;;4.20;99.90;;;;;;5023575;28;20058;-64
2020/12/19 10:37:03;;;;;;;14.37;8.53;;;4.20;99.90;;;;;;5011499;28;20073;-63
2020/12/19 10:39:30;;;;;;;15.13;9.07;;;4.20;99.90;;;;;;5023032;28;20056;-63
2020/12/19 10:41:57;;;;;;;14.47;7.77;;;4.10;99.90;;;;;;5029237;28;20056;-63
2020/12/19 10:44:25;;;;;;;15.20;8.27;;;4.10;99.90;;;;;;5031882;28;20103;-63
2020/12/19 10:46:51;;;;;;;15.70;9.10;;;4.00;99.90;;;;;;5032669;28;20056;-63
2020/12/19 10:49:18;;;;;;;15.43;8.77;;;4.10;99.90;;;;;;5031507;28;20049;-64
2020/12/19 10:51:45;;;;;;;18.47;8.93;;;4.10;99.90;;;;;;5028257;28;20529;-63
2020/12/19 10:54:12;;;;;;;15.37;8.13;;;4.00;99.90;;;;;;5028722;28;20053;-63
2020/12/19 10:56:39;;;;;;;13.67;8.03;;;4.00;99.90;;;;;;5029418;28;20095;-63
2020/12/19 10:59:06;;;;;;;13.73;8.03;;;4.00;99.90;;;;;;5029448;28;20436;-64
2020/12/19 11:01:33;;;;;;;15.23;7.77;;;4.10;99.90;;;;;;5029803;28;20489;-63
2020/12/19 11:04:00;;;;;;;13.63;7.93;;;4.10;99.90;;;;;;5027301;28;20049;-63
2020/12/19 11:06:27;;;;;;;16.93;8.57;;;4.00;99.90;;;;;;5029346;28;20509;-63
2020/12/19 11:08:55;;;;;;;14.13;8.57;;;4.10;99.90;;;;;;5029096;28;20053;-63
2020/12/19 11:11:22;;;;;;;12.67;7.97;;;4.10;99.90;;;;;;5029471;28;20053;-63
2020/12/19 11:13:50;;;;;;;14.37;7.53;;;4.10;99.90;;;;;;5029938;28;20054;-63
2020/12/19 11:16:23;;;;;;;13.27;8.27;;;4.30;99.90;;;;;;5029061;28;20053;-63
2020/12/19 11:18:50;;;;;;;17.07;7.97;;;4.30;99.90;;;;;;5029654;28;20429;-63
2020/12/19 11:21:17;;;;;;;13.57;7.60;;;4.30;99.90;;;;;;5027674;28;20062;-63
2020/12/19 11:23:44;;;;;;;13.27;8.13;;;4.30;99.90;;;;;;5029809;28;20045;-64
2020/12/19 11:26:11;;;;;;;13.40;6.63;;;4.40;99.90;;;;;;5030294;28;20560;-63
2020/12/19 11:28:38;;;;;;;10.17;6.07;;;4.60;99.90;;;;;;5028929;28;20050;-63
2020/12/19 11:31:04;;;;;;;10.30;5.53;;;4.70;99.90;;;;;;5029124;28;20065;-64
2020/12/19 11:33:31;;;;;;;11.87;6.83;;;4.50;99.90;;;;;;5027393;28;20080;-67
2020/12/19 11:36:00;;;;;;;11.87;6.43;;;4.40;99.90;;;;;;5011968;28;20061;-67
2020/12/19 11:38:27;;;;;;;9.73;5.77;;;4.50;99.90;;;;;;5016659;28;20049;-67
2020/12/19 11:40:54;;;;;;;10.60;6.17;;;4.50;99.90;;;;;;5027999;28;20072;-65
2020/12/19 11:43:21;;;;;;;11.50;5.93;;;4.50;99.90;;;;;;5017066;28;20050;-65
2020/12/19 11:45:51;;;;;;;14.90;7.07;;;4.50;99.90;;;;;;5013084;28;20056;-63
2020/12/19 11:48:18;;;;;;;13.73;7.03;;;4.60;99.90;;;;;;5012284;28;20053;-63
2020/12/19 11:50:45;;;;;;;12.57;6.70;;;4.50;99.90;;;;;;5018857;28;20492;-63
2020/12/19 11:53:13;;;;;;;11.10;6.17;;;4.50;99.90;;;;;;5027828;28;20046;-62
2020/12/19 11:55:39;;;;;;;10.80;6.30;;;4.60;99.90;;;;;;5027955;28;20046;-63
2020/12/19 11:58:06;;;;;;;11.67;6.67;;;4.60;99.90;;;;;;5027702;28;20437;-63
2020/12/19 12:00:33;;;;;;;12.00;6.10;;;4.60;99.90;;;;;;5026273;28;20045;-63
2020/12/19 12:03:00;;;;;;;11.67;6.23;;;4.70;99.90;;;;;;5034196;28;20057;-62
2020/12/19 12:05:26;;;;;;;11.67;6.07;;;4.70;99.90;;;;;;5035350;28;20057;-63
2020/12/19 12:07:53;;;;;;;10.77;5.80;;;4.70;99.90;;;;;;5034922;28;20505;-63
2020/12/19 12:10:21;;;;;;;10.33;5.47;;;4.80;99.90;;;;;;5034439;28;20137;-63
2020/12/19 12:12:47;;;;;;;11.47;6.17;;;5.00;99.90;;;;;;5035233;28;20758;-63
2020/12/19 12:15:14;;;;;;;10.10;5.83;;;5.20;99.90;;;;;;5034104;28;20057;-65
2020/12/19 12:17:41;;;;;;;10.60;6.00;;;5.30;99.90;;;;;;5035222;28;20049;-66
2020/12/19 12:20:07;;;;;;;13.40;6.67;;;5.50;99.90;;;;;;5032821;28;20060;-65
2020/12/19 12:22:34;;;;;;;12.00;6.10;;;5.60;99.90;;;;;;5034828;28;20057;-67
2020/12/19 12:25:01;;;;;;;10.27;5.93;;;5.60;99.90;;;;;;5035246;28;20498;-67
2020/12/19 12:27:30;;;;;;;11.23;6.20;;;5.50;99.90;;;;;;5030154;28;20134;-65
2020/12/19 12:29:57;;;;;;;9.77;5.40;;;5.40;99.90;;;;;;5034876;28;20053;-66
2020/12/19 12:32:23;;;;;;;10.63;5.83;;;5.40;99.90;;;;;;5030745;28;20053;-65
2020/12/19 12:34:50;;;;;;;10.67;5.53;;;5.40;99.90;;;;;;5034900;28;20052;-68
2020/12/19 12:37:17;;;;;;;10.57;5.57;;;5.30;99.90;;;;;;5034026;28;20413;-66
2020/12/19 12:39:44;;;;;;;9.77;5.27;;;5.20;99.90;;;;;;5033611;28;20057;-65
2020/12/19 12:42:10;;;;;;;10.53;5.80;;;5.40;99.90;;;;;;5034067;28;20053;-68
2020/12/19 12:44:38;;;;;;;9.77;5.47;;;5.60;99.90;;;;;;5033755;28;20058;-65
2020/12/19 12:47:05;;;;;;;8.77;4.80;;;6.00;99.90;;;;;;5034445;28;20050;-66